Time;durP1;ratioP1;P1;durP2;ratioP2;P2;SDS_P1;SDS_P2;PMS_P1;PMS_P2;Temp;Humidity;BMP_temperature;BMP_pressure;BME280_temperature;BME280_humidity;BME280_pressure;Samples;Min_cycle;Max_cycle;Signal;HPM_P1;HPM_P2
2022/07/13 00:01:34;;;;;;;;;;;;;;;20.58;61.21;97788.66;6299310;28;19924;-65
2022/07/13 00:04:35;;;;;;;;;;;;;;;20.67;62.42;97786.16;6298757;28;19924;-65
2022/07/13 00:07:39;;;;;;;;;;;;;;;20.77;61.72;97789.66;6299392;28;19924;-64
2022/07/13 00:10:40;;;;;;;;;;;;;;;20.82;61.03;97776.69;6299120;28;19931;-64
2022/07/13 00:13:44;;;;;;;;;;;;;;;20.84;61.11;97769.38;6299138;28;19925;-65
2022/07/13 00:16:47;;;;;;;;;;;;;;;20.84;60.95;97758.69;6299154;28;19928;-65
2022/07/13 00:19:51;;;;;;;;;;;;;;;20.83;61.17;97757.84;6298764;28;19925;-65
2022/07/13 00:22:54;;;;;;;;;;;;;;;20.87;61.52;97761.06;6298881;28;20456;-66
2022/07/13 00:25:58;;;;;;;;;;;;;;;20.92;60.87;97761.50;6298811;28;19924;-66
2022/07/13 00:29:04;;;;;;;;;;;;;;;20.93;60.76;97752.47;6298635;28;20394;-65
2022/07/13 00:32:08;;;;;;;;;;;;;;;20.92;60.92;97750.78;6298824;28;20346;-65
2022/07/13 00:35:09;;;;;;;;;;;;;;;20.92;61.24;97750.78;6298156;28;19931;-65
2022/07/13 00:38:15;;;;;;;;;;;;;;;20.90;61.29;97741.22;6298325;28;19924;-65
2022/07/13 00:41:22;;;;;;;;;;;;;;;20.84;61.75;97737.28;6298534;28;19925;-65
2022/07/13 00:44:26;;;;;;;;;;;;;;;20.80;61.77;97746.56;6297710;28;20305;-65
2022/07/13 00:47:32;;;;;;;;;;;;;;;20.73;62.03;97746.28;6297397;28;19924;-65
2022/07/13 00:50:39;;;;;;;;;;;;;;;20.67;62.29;97740.69;6298261;28;19928;-66
2022/07/13 00:53:43;;;;;;;;;;;;;;;20.58;63.17;97743.22;6280156;28;19924;-65
2022/07/13 00:56:49;;;;;;;;;;;;;;;20.47;62.77;97740.66;6297979;28;19924;-64
2022/07/13 00:59:53;;;;;;;;;;;;;;;20.38;62.86;97736.13;6298204;28;19924;-65
2022/07/13 01:02:57;;;;;;;;;;;;;;;20.33;62.92;97738.38;6298168;28;19924;-64
2022/07/13 01:06:01;;;;;;;;;;;;;;;20.34;63.00;97740.06;6296786;28;19924;-65
2022/07/13 01:09:05;;;;;;;;;;;;;;;20.38;63.48;97736.13;6297393;28;19924;-65
2022/07/13 01:12:08;;;;;;;;;;;;;;;20.48;62.78;97744.16;6297694;28;19928;-64
2022/07/13 01:15:09;;;;;;;;;;;;;;;20.59;63.09;97742.22;6297657;28;20017;-65
2022/07/13 01:18:14;;;;;;;;;;;;;;;20.74;62.05;97747.13;6297566;28;19932;-65
2022/07/13 01:21:18;;;;;;;;;;;;;;;20.89;61.78;97740.38;6297276;28;19928;-65
2022/07/13 01:24:21;;;;;;;;;;;;;;;21.06;61.67;97746.81;6297641;28;19924;-64
2022/07/13 01:27:22;;;;;;;;;;;;;;;21.27;61.15;97760.00;6297411;28;19924;-64
2022/07/13 01:30:26;;;;;;;;;;;;;;;21.50;60.73;97752.50;6296551;28;19932;-65
2022/07/13 01:33:27;;;;;;;;;;;;;;;21.68;60.28;97757.91;6296935;28;19924;-64
2022/07/13 01:36:34;;;;;;;;;;;;;;;21.78;60.18;97774.81;6297137;28;20018;-65
2022/07/13 01:39:37;;;;;;;;;;;;;;;21.78;59.58;97769.44;6296878;28;19921;-65
2022/07/13 01:42:41;;;;;;;;;;;;;;;21.71;59.90;97768.34;6296534;28;20015;-64
2022/07/13 01:45:45;;;;;;;;;;;;;;;21.60;60.23;97766.72;6296568;28;19932;-65
2022/07/13 01:48:46;;;;;;;;;;;;;;;21.63;60.29;97760.22;6296627;28;19928;-65
2022/07/13 01:51:50;;;;;;;;;;;;;;;21.77;60.28;97757.06;6296588;28;19920;-65
2022/07/13 01:54:51;;;;;;;;;;;;;;;21.94;59.79;97756.25;6295863;28;19925;-66
2022/07/13 01:57:59;;;;;;;;;;;;;;;22.10;59.31;97752.06;6296577;28;20006;-65
2022/07/13 02:01:02;;;;;;;;;;;;;;;22.24;59.34;97748.06;6296438;28;19924;-65
2022/07/13 02:04:08;;;;;;;;;;;;;;;22.33;58.94;97742.63;6296754;28;20423;-65
2022/07/13 02:07:11;;;;;;;;;;;;;;;22.44;59.00;97743.41;6296552;28;19924;-65
2022/07/13 02:10:15;;;;;;;;;;;;;;;22.51;58.96;97747.16;6296439;28;19925;-65
2022/07/13 02:13:17;;;;;;;;;;;;;;;22.58;58.92;97750.91;6296232;28;19924;-64
2022/07/13 02:16:37;;;;;;;;;;;;;;;22.60;59.24;97754.28;6278265;28;19924;-65
2022/07/13 02:19:41;;;;;;;;;;;;;;;22.60;59.02;97754.28;6295854;28;20026;-66
2022/07/13 02:22:45;;;;;;;;;;;;;;;22.59;59.02;97747.22;6295677;28;19924;-65
2022/07/13 02:25:48;;;;;;;;;;;;;;;22.57;59.14;97738.50;6295671;28;20311;-65
2022/07/13 02:28:49;;;;;;;;;;;;;;;22.56;59.30;97748.41;6295533;28;19931;-64
2022/07/13 02:31:50;;;;;;;;;;;;;;;22.64;59.33;97750.28;6295837;28;20360;-65
2022/07/13 02:34:51;;;;;;;;;;;;;;;22.76;58.86;97754.44;6295078;28;19924;-65
2022/07/13 02:37:55;;;;;;;;;;;;;;;22.94;58.81;97745.53;6295887;28;19930;-65
2022/07/13 02:40:56;;;;;;;;;;;;;;;23.30;57.88;97749.00;6295161;28;20337;-65
2022/07/13 02:43:57;;;;;;;;;;;;;;;23.71;57.52;97744.72;6295536;28;19960;-65
2022/07/13 02:46:58;;;;;;;;;;;;;;;24.23;56.08;97737.50;6295222;28;20298;-64
2022/07/13 02:50:02;;;;;;;;;;;;;;;24.76;54.77;97738.94;6293950;28;20031;-65
2022/07/13 02:53:06;;;;;;;;;;;;;;;25.19;54.03;97736.94;6295030;28;19924;-65
2022/07/13 02:56:10;;;;;;;;;;;;;;;25.45;53.23;97740.25;6295112;28;19932;-64
2022/07/13 02:59:11;;;;;;;;;;;;;;;25.53;53.00;97745.63;6295370;28;20448;-65
2022/07/13 03:02:12;;;;;;;;;;;;;;;25.54;52.91;97747.31;6295216;28;19924;-65
2022/07/13 03:05:15;;;;;;;;;;;;;;;25.57;52.67;97753.38;6295321;28;20017;-65
2022/07/13 03:08:21;;;;;;;;;;;;;;;25.52;52.30;97760.09;6295321;28;19924;-65
2022/07/13 03:11:22;;;;;;;;;;;;;;;25.45;52.84;97755.56;6294569;28;20398;-64
2022/07/13 03:14:28;;;;;;;;;;;;;;;25.39;52.82;97756.25;6295137;28;19924;-64
2022/07/13 03:17:29;;;;;;;;;;;;;;;25.27;52.23;97758.47;6294944;28;19931;-64
2022/07/13 03:20:30;;;;;;;;;;;;;;;25.16;52.52;97756.13;6295195;28;20370;-64
2022/07/13 03:23:34;;;;;;;;;;;;;;;24.99;52.84;97756.09;6295056;28;19925;-65
2022/07/13 03:26:37;;;;;;;;;;;;;;;24.86;52.69;97755.78;6294793;28;19924;-65
2022/07/13 03:29:43;;;;;;;;;;;;;;;24.77;53.14;97762.16;6296360;28;20538;-65
2022/07/13 03:32:44;;;;;;;;;;;;;;;24.70;52.99;97766.53;6299085;28;20296;-65
2022/07/13 03:35:47;;;;;;;;;;;;;;;24.68;52.72;97771.22;6299783;28;20281;-65
2022/07/13 03:38:48;;;;;;;;;;;;;;;24.63;52.61;97766.38;6298977;28;19924;-65
2022/07/13 03:41:54;;;;;;;;;;;;;;;24.69;52.20;97760.31;6298950;28;20201;-65
2022/07/13 03:44:55;;;;;;;;;;;;;;;24.84;50.99;97768.56;6299235;28;20027;-65
2022/07/13 03:47:56;;;;;;;;;;;;;;;24.80;51.54;97756.47;6299171;28;19936;-65
2022/07/13 03:50:57;;;;;;;;;;;;;;;24.83;51.68;97761.50;6298699;28;19931;-65
2022/07/13 03:54:01;;;;;;;;;;;;;;;24.95;50.94;97749.38;6299478;28;19925;-65
2022/07/13 03:57:02;;;;;;;;;;;;;;;24.99;51.12;97750.72;6299211;28;19986;-65
2022/07/13 04:00:07;;;;;;;;;;;;;;;25.19;50.71;97739.63;6299270;28;19924;-66
2022/07/13 04:03:08;;;;;;;;;;;;;;;25.27;50.16;97737.75;6299156;28;19924;-66
2022/07/13 04:06:12;;;;;;;;;;;;;;;25.47;49.79;97732.00;6298457;28;19924;-65
2022/07/13 04:09:12;;;;;;;;;;;;;;;25.59;49.54;97735.16;6298783;28;20421;-65
2022/07/13 04:12:19;;;;;;;;;;;;;;;25.74;49.07;97733.44;6298896;28;19971;-64
2022/07/13 04:15:25;;;;;;;;;;;;;;;25.92;48.19;97728.66;6281395;28;20401;-65
2022/07/13 04:18:26;;;;;;;;;;;;;;;25.80;48.65;97721.94;6298555;28;19924;-65
2022/07/13 04:21:30;;;;;;;;;;;;;;;25.88;49.05;97713.03;6298476;28;19931;-65
2022/07/13 04:24:34;;;;;;;;;;;;;;;26.01;48.55;97712.44;6298595;28;19924;-65
2022/07/13 04:27:39;;;;;;;;;;;;;;;25.91;48.73;97713.50;6298565;28;19928;-64
2022/07/13 04:30:43;;;;;;;;;;;;;;;26.17;47.05;97701.56;6298329;28;19931;-65
2022/07/13 04:33:44;;;;;;;;;;;;;;;26.20;45.96;97706.59;6298307;28;19924;-65
2022/07/13 04:36:45;;;;;;;;;;;;;;;26.17;45.52;97704.25;6297803;28;20393;-65
2022/07/13 04:39:48;;;;;;;;;;;;;;;26.19;45.29;97704.94;6298401;28;19987;-66
2022/07/13 04:42:49;;;;;;;;;;;;;;;26.37;45.23;97704.63;6295989;28;20304;-65
2022/07/13 04:45:53;;;;;;;;;;;;;;;26.60;45.08;97696.56;6298077;28;20404;-65
2022/07/13 04:48:54;;;;;;;;;;;;;;;28.17;42.89;97695.56;6297659;28;19925;-65
2022/07/13 04:51:55;;;;;;;;;;;;;;;31.48;37.50;97696.59;6279933;28;19963;-65
2022/07/13 04:54:59;;;;;;;;;;;;;;;34.95;33.00;97692.53;6280300;28;19924;-66
2022/07/13 04:58:02;;;;;;;;;;;;;;;37.91;30.47;97698.25;6297782;28;20301;-65
2022/07/13 05:01:08;;;;;;;;;;;;;;;40.38;28.14;97696.44;6279777;28;19924;-65
2022/07/13 05:04:09;;;;;;;;;;;;;;;43.05;26.31;97691.91;6297352;28;20313;-65
2022/07/13 05:07:10;;;;;;;;;;;;;;;45.35;24.05;97686.19;6296842;28;19925;-66
2022/07/13 05:10:12;;;;;;;;;;;;;;;47.34;21.40;97694.13;6296900;28;19970;-64
2022/07/13 05:13:13;;;;;;;;;;;;;;;48.33;20.35;97680.78;6296313;28;20306;-64
2022/07/13 05:16:17;;;;;;;;;;;;;;;50.54;20.78;97683.94;6297515;28;19946;-65
2022/07/13 05:19:21;;;;;;;;;;;;;;;52.79;16.87;97687.19;6297453;28;19920;-65
2022/07/13 05:22:22;;;;;;;;;;;;;;;55.21;16.13;97687.03;6278955;28;20395;-65
2022/07/13 05:25:24;;;;;;;;;;;;;;;57.20;16.89;97684.88;6296655;28;19947;-65
2022/07/13 05:28:27;;;;;;;;;;;;;;;58.89;14.34;97684.88;6296910;28;19924;-66
2022/07/13 05:31:31;;;;;;;;;;;;;;;58.67;12.88;97684.81;6296542;28;20313;-66
2022/07/13 05:34:32;;;;;;;;;;;;;;;55.68;13.94;97669.78;6296435;28;19950;-65
2022/07/13 05:37:35;;;;;;;;;;;;;;;52.80;15.73;97652.28;6296748;28;20348;-65
2022/07/13 05:40:40;;;;;;;;;;;;;;;50.26;17.73;97650.03;6296877;28;19931;-65
2022/07/13 05:43:47;;;;;;;;;;;;;;;49.88;17.76;97645.34;6296859;28;20389;-65
2022/07/13 05:46:48;;;;;;;;;;;;;;;52.02;15.57;97636.69;6296653;28;20473;-65
2022/07/13 05:49:51;;;;;;;;;;;;;;;54.03;14.34;97645.91;6295982;28;19924;-65
2022/07/13 05:52:58;;;;;;;;;;;;;;;54.26;12.78;97646.81;6295692;28;19926;-64
2022/07/13 05:55:59;;;;;;;;;;;;;;;55.82;12.49;97655.09;6295178;28;19924;-65
2022/07/13 05:59:00;;;;;;;;;;;;;;;57.84;11.16;97657.16;6296373;28;19924;-65
2022/07/13 06:02:06;;;;;;;;;;;;;;;59.24;11.10;97660.69;6296406;28;19924;-66
2022/07/13 06:05:09;;;;;;;;;;;;;;;60.44;10.66;97668.75;6317770;28;20391;-65
2022/07/13 06:08:11;;;;;;;;;;;;;;;61.22;10.28;97664.72;6324641;28;19924;-65
2022/07/13 06:11:13;;;;;;;;;;;;;;;62.36;9.40;97666.56;6326095;28;19909;-64
2022/07/13 06:28:09;;;;;;;;;;;;;;;61.01;9.37;97612.41;6168164;23;19979;-65
2022/07/13 06:44:47;;;;;;;;;;;;;;;59.92;7.51;97576.31;6180522;23;19994;-64
2022/07/13 06:47:52;;;;;;;;;;;;;;;59.67;7.88;97564.19;6177253;29;19926;-65
2022/07/13 06:50:58;;;;;;;;;;;;;;;58.29;8.15;97549.38;6171494;28;19926;-65
2022/07/13 06:54:02;;;;;;;;;;;;;;;58.18;7.69;97549.31;6149096;28;19974;-66
2022/07/13 06:57:05;;;;;;;;;;;;;;;59.80;7.56;97556.88;6184836;28;19956;-65
2022/07/13 07:00:13;;;;;;;;;;;;;;;61.38;6.63;97567.44;6177624;28;19930;-65
2022/07/13 07:07:14;;;;;;;;;;;;;;;61.97;6.46;97575.00;6186471;28;19936;-66
2022/07/13 07:10:19;;;;;;;;;;;;;;;59.94;7.56;97561.72;6182169;29;19994;-66
2022/07/13 07:13:24;;;;;;;;;;;;;;;56.73;8.80;97534.44;6161056;29;19927;-65
2022/07/13 07:16:28;;;;;;;;;;;;;;;53.31;10.49;97520.34;6153662;29;19926;-66
2022/07/13 07:19:30;;;;;;;;;;;;;;;50.57;12.51;97508.78;6153413;29;20017;-66
2022/07/13 07:22:34;;;;;;;;;;;;;;;48.61;13.62;97518.50;6153559;28;20021;-66
2022/07/13 07:25:42;;;;;;;;;;;;;;;45.95;15.14;97521.28;6153329;29;20455;-66
2022/07/13 07:28:46;;;;;;;;;;;;;;;44.08;16.41;97512.28;6153296;29;19926;-64
2022/07/13 07:31:49;;;;;;;;;;;;;;;42.39;17.69;97511.44;6153061;28;19930;-66
2022/07/13 07:34:51;;;;;;;;;;;;;;;40.89;18.59;97508.03;6153228;29;20025;-66
2022/07/13 07:37:54;;;;;;;;;;;;;;;39.50;20.93;97507.91;6152642;29;19927;-66
2022/07/13 07:41:01;;;;;;;;;;;;;;;38.46;20.63;97511.41;6152655;29;19926;-65
2022/07/13 07:44:05;;;;;;;;;;;;;;;37.53;21.95;97504.97;6152274;29;20412;-66
2022/07/13 07:47:09;;;;;;;;;;;;;;;36.77;23.15;97502.03;6153003;29;20006;-65
2022/07/13 07:50:13;;;;;;;;;;;;;;;36.26;24.15;97506.69;6152567;29;19930;-65
2022/07/13 07:53:17;;;;;;;;;;;;;;;35.90;24.59;97508.81;6152690;29;19927;-65
2022/07/13 07:56:20;;;;;;;;;;;;;;;35.40;25.16;97503.16;6152310;29;19927;-65
2022/07/13 07:59:26;;;;;;;;;;;;;;;35.48;25.22;97513.72;6152444;29;19926;-65
2022/07/13 08:02:29;;;;;;;;;;;;;;;35.65;24.59;97513.81;6152424;29;19931;-65
2022/07/13 08:05:33;;;;;;;;;;;;;;;36.34;24.46;97510.94;6151127;29;20013;-65
2022/07/13 08:08:36;;;;;;;;;;;;;;;38.05;23.02;97519.25;6152187;29;20307;-66
2022/07/13 08:11:37;;;;;;;;;;;;;;;39.08;21.71;97524.50;6150927;29;20301;-66
2022/07/13 08:14:38;;;;;;;;;;;;;;;39.92;21.17;97528.16;6152317;28;19933;-66
2022/07/13 08:17:44;;;;;;;;;;;;;;;41.44;20.28;97526.34;6152099;28;19930;-65
2022/07/13 08:20:49;;;;;;;;;;;;;;;43.91;18.03;97536.94;6152302;28;19926;-65
2022/07/13 08:23:52;;;;;;;;;;;;;;;46.83;15.98;97536.66;6152167;28;19957;-64
2022/07/13 08:26:55;;;;;;;;;;;;;;;49.13;14.67;97552.72;6152002;29;19927;-64
2022/07/13 08:30:00;;;;;;;;;;;;;;;50.45;12.95;97553.53;6151880;29;19934;-65
2022/07/13 08:33:03;;;;;;;;;;;;;;;50.69;13.58;97548.06;6152035;28;19926;-65
2022/07/13 08:39:27;;;;;;;;;;;;;;;54.05;12.03;97547.81;6151878;29;20398;-66
2022/07/13 08:42:31;;;;;;;;;;;;;;;54.34;11.08;97548.44;6151452;29;19930;-66
2022/07/13 08:45:33;;;;;;;;;;;;;;;55.52;10.30;97551.41;6151474;29;19933;-65
2022/07/13 08:48:38;;;;;;;;;;;;;;;56.86;9.27;97549.97;6151328;29;19926;-64
2022/07/13 08:51:43;;;;;;;;;;;;;;;58.26;7.05;97544.50;6151606;28;19994;-65
2022/07/13 08:54:46;;;;;;;;;;;;;;;58.90;8.23;97553.22;6151289;29;19933;-65
2022/07/13 08:57:50;;;;;;;;;;;;;;;59.56;7.66;97558.53;6151394;28;20439;-64
2022/07/13 09:00:54;;;;;;;;;;;;;;;60.01;6.82;97550.31;6151263;29;19926;-66
2022/07/13 09:03:58;;;;;;;;;;;;;;;60.07;6.88;97547.88;6151228;29;19926;-66
2022/07/13 09:07:02;;;;;;;;;;;;;;;59.11;7.14;97532.56;6149805;29;20013;-65
2022/07/13 09:10:06;;;;;;;;;;;;;;;57.26;8.09;97522.03;6151202;29;19926;-67
2022/07/13 09:13:09;;;;;;;;;;;;;;;56.97;8.02;97509.66;6151095;29;20033;-65
2022/07/13 09:16:23;;;;;;;;;;;;;;;57.63;7.68;97521.91;6150837;29;19926;-65
2022/07/13 09:19:33;;;;;;;;;;;;;;;55.79;8.33;97512.69;6150271;28;19949;-65
2022/07/13 09:22:45;;;;;;;;;;;;;;;51.15;11.04;97501.19;6150467;28;19926;-65
2022/07/13 09:25:47;;;;;;;;;;;;;;;47.65;13.31;97483.06;6150581;28;19926;-66
2022/07/13 09:28:51;;;;;;;;;;;;;;;47.42;13.62;97482.38;6150115;28;19937;-65
2022/07/13 09:31:56;;;;;;;;;;;;;;;47.29;13.51;97471.31;6150579;29;19926;-66
2022/07/13 09:35:03;;;;;;;;;;;;;;;46.04;14.49;97469.31;6150241;29;19927;-66
2022/07/13 09:38:08;;;;;;;;;;;;;;;44.24;16.15;97462.91;6150245;28;19926;-65
2022/07/13 09:41:16;;;;;;;;;;;;;;;42.30;17.93;97466.16;6150274;28;20330;-65
2022/07/13 09:47:42;;;;;;;;;;;;;;;39.57;20.37;97449.81;6149724;29;19926;-67
2022/07/13 09:50:51;;;;;;;;;;;;;;;39.28;20.62;97461.25;6149978;29;19927;-66
2022/07/13 09:53:57;;;;;;;;;;;;;;;39.43;20.22;97462.44;6150044;29;19926;-65
2022/07/13 09:56:59;;;;;;;;;;;;;;;39.55;20.02;97457.53;6149910;29;19934;-66
2022/07/13 10:00:07;;;;;;;;;;;;;;;39.72;20.00;97451.78;6150095;29;19927;-65
2022/07/13 10:03:12;;;;;;;;;;;;;;;40.06;19.41;97452.09;6149735;29;20344;-65
2022/07/13 10:06:13;;;;;;;;;;;;;;;40.29;19.40;97449.91;6149672;29;19927;-66
2022/07/13 10:09:32;;;;;;;;;;;;;;;40.23;19.37;97434.47;6149799;28;19927;-65
2022/07/13 10:12:37;;;;;;;;;;;;;;;39.97;19.87;97431.69;6149556;28;19989;-66
2022/07/13 10:15:43;;;;;;;;;;;;;;;40.25;19.51;97426.75;6149630;28;19927;-66
2022/07/13 10:18:44;;;;;;;;;;;;;;;41.39;18.71;97420.59;6149563;29;19927;-65
2022/07/13 10:21:55;;;;;;;;;;;;;;;42.72;17.89;97416.75;6149383;29;19937;-65
2022/07/13 10:25:01;;;;;;;;;;;;;;;43.47;17.38;97410.59;6149434;29;19926;-66
2022/07/13 10:28:04;;;;;;;;;;;;;;;42.70;17.61;97410.72;6149145;29;19937;-66
2022/07/13 10:31:24;;;;;;;;;;;;;;;41.48;18.66;97400.44;6149220;29;19926;-66
2022/07/13 10:34:45;;;;;;;;;;;;;;;40.13;20.13;97397.50;6149347;28;19966;-66
2022/07/13 10:37:55;;;;;;;;;;;;;;;40.14;20.08;97396.44;6148960;28;19933;-66
2022/07/13 10:41:23;;;;;;;;;;;;;;;40.70;19.34;97394.69;6148983;28;19930;-66
2022/07/13 10:44:32;;;;;;;;;;;;;;;41.00;18.91;97389.03;6147471;29;19926;-65
2022/07/13 10:47:44;;;;;;;;;;;;;;;40.93;18.74;97388.50;6149017;29;19948;-65
2022/07/13 10:50:48;;;;;;;;;;;;;;;42.44;17.34;97391.63;6149098;29;20017;-65
2022/07/13 10:53:52;;;;;;;;;;;;;;;44.11;15.82;97400.75;6148984;29;19933;-65
2022/07/13 10:57:13;;;;;;;;;;;;;;;44.71;15.08;97393.56;6148906;29;20024;-66
2022/07/13 11:00:28;;;;;;;;;;;;;;;44.57;15.32;97391.59;6148907;29;19933;-66
2022/07/13 11:03:37;;;;;;;;;;;;;;;44.46;15.07;97387.38;6148645;29;19926;-65
2022/07/13 11:07:01;;;;;;;;;;;;;;;44.85;15.17;97386.06;6148703;29;19934;-65
2022/07/13 11:10:25;;;;;;;;;;;;;;;45.50;14.70;97378.56;6148604;28;19926;-68
2022/07/13 11:13:28;;;;;;;;;;;;;;;45.69;14.52;97377.28;6148363;29;20029;-68
2022/07/13 11:16:50;;;;;;;;;;;;;;;45.35;14.67;97374.97;6148376;29;19927;-66
2022/07/13 11:20:03;;;;;;;;;;;;;;;44.11;15.72;97359.16;6148364;29;19926;-66
2022/07/13 11:26:44;;;;;;;;;;;;;;;42.85;16.89;97365.44;6148424;29;19929;-66
2022/07/13 11:29:57;;;;;;;;;;;;;;;42.57;16.80;97356.91;6148476;29;20337;-64
2022/07/13 11:33:07;;;;;;;;;;;;;;;42.55;16.78;97356.38;6148767;29;20377;-64
2022/07/13 11:36:10;;;;;;;;;;;;;;;42.58;16.83;97358.56;6148210;28;20308;-65
2022/07/13 11:39:22;;;;;;;;;;;;;;;42.54;16.82;97369.38;6148095;29;20025;-65
2022/07/13 11:42:23;;;;;;;;;;;;;;;42.16;17.01;97371.97;6148068;29;19926;-66
2022/07/13 11:45:26;;;;;;;;;;;;;;;41.29;17.86;97358.00;6148538;29;19933;-65
2022/07/13 11:48:31;;;;;;;;;;;;;;;40.05;19.03;97347.63;6148595;28;19927;-65
2022/07/13 11:51:32;;;;;;;;;;;;;;;39.65;19.64;97347.34;6151102;28;20024;-65
2022/07/13 11:54:36;;;;;;;;;;;;;;;39.60;19.61;97344.59;6152475;28;20069;-65
2022/07/13 11:57:37;;;;;;;;;;;;;;;38.91;20.41;97348.59;6152530;29;19927;-65
2022/07/13 12:00:38;;;;;;;;;;;;;;;38.27;20.92;97349.59;6150943;29;19933;-65
2022/07/13 12:03:48;;;;;;;;;;;;;;;37.99;20.86;97336.25;6152184;29;19937;-65
2022/07/13 12:06:52;;;;;;;;;;;;;;;37.82;21.68;97331.72;6152579;28;19926;-65
2022/07/13 12:09:59;;;;;;;;;;;;;;;37.41;22.42;97330.53;6152297;29;19926;-65
2022/07/13 12:13:07;;;;;;;;;;;;;;;36.99;22.87;97329.25;6152193;29;19933;-65
2022/07/13 12:16:12;;;;;;;;;;;;;;;36.15;23.75;97319.44;6152272;28;20312;-66
2022/07/13 12:19:18;;;;;;;;;;;;;;;35.91;23.81;97317.94;6151820;29;20396;-64
2022/07/13 12:22:20;;;;;;;;;;;;;;;36.01;24.08;97323.59;6151796;29;19926;-65
2022/07/13 12:25:26;;;;;;;;;;;;;;;36.25;23.75;97323.38;6151729;29;19926;-66
2022/07/13 12:28:30;;;;;;;;;;;;;;;36.40;23.66;97318.91;6152055;28;20335;-65
2022/07/13 12:31:31;;;;;;;;;;;;;;;36.59;23.12;97315.91;6151868;29;19933;-65
2022/07/13 12:34:47;;;;;;;;;;;;;;;36.47;23.70;97310.53;6151548;29;19973;-65
2022/07/13 12:37:53;;;;;;;;;;;;;;;36.35;23.39;97301.59;6151609;29;19990;-65
2022/07/13 12:40:58;;;;;;;;;;;;;;;36.06;24.00;97299.00;6151577;29;19922;-66
2022/07/13 12:44:05;;;;;;;;;;;;;;;34.91;25.32;97292.13;6151303;29;19930;-66
2022/07/13 12:47:06;;;;;;;;;;;;;;;34.21;26.02;97293.97;6151463;29;20443;-65
2022/07/13 12:50:25;;;;;;;;;;;;;;;33.87;26.44;97282.81;6151166;29;19990;-65
2022/07/13 12:53:45;;;;;;;;;;;;;;;33.38;26.57;97284.91;6151267;29;20297;-65
2022/07/13 12:56:52;;;;;;;;;;;;;;;33.20;27.44;97272.19;6151009;28;19926;-66
2022/07/13 12:59:58;;;;;;;;;;;;;;;32.80;27.16;97272.75;6151185;29;20428;-65
2022/07/13 13:03:00;;;;;;;;;;;;;;;32.78;27.87;97276.78;6150089;28;19930;-66
2022/07/13 13:06:03;;;;;;;;;;;;;;;32.47;28.04;97286.00;6150919;28;19938;-65
2022/07/13 13:09:08;;;;;;;;;;;;;;;32.46;28.10;97282.44;6150953;29;19926;-64
2022/07/13 13:12:11;;;;;;;;;;;;;;;32.39;28.19;97287.13;6151320;28;19926;-66
2022/07/13 13:15:15;;;;;;;;;;;;;;;32.20;28.12;97289.00;6150887;29;20512;-64
2022/07/13 13:18:19;;;;;;;;;;;;;;;32.22;28.80;97296.97;6150722;29;19933;-65
2022/07/13 13:21:20;;;;;;;;;;;;;;;32.27;28.82;97303.38;6150649;29;20312;-64
2022/07/13 13:24:21;;;;;;;;;;;;;;;32.22;28.63;97296.97;6150438;28;19958;-66
2022/07/13 13:27:22;;;;;;;;;;;;;;;32.22;28.85;97302.41;6149867;29;19926;-65
2022/07/13 13:30:44;;;;;;;;;;;;;;;32.15;28.85;97303.28;6149183;29;20320;-65
2022/07/13 13:33:45;;;;;;;;;;;;;;;32.07;28.61;97310.94;6149673;28;20102;-65
2022/07/13 13:36:51;;;;;;;;;;;;;;;32.11;28.66;97318.44;6149951;28;20349;-64
2022/07/13 13:40:00;;;;;;;;;;;;;;;32.02;28.79;97317.06;6150112;28;19926;-66
2022/07/13 13:43:03;;;;;;;;;;;;;;;32.00;28.71;97315.63;6149712;28;19930;-65
2022/07/13 13:46:05;;;;;;;;;;;;;;;31.94;29.00;97311.91;6149915;29;19926;-65
2022/07/13 13:49:07;;;;;;;;;;;;;;;31.85;28.69;97307.78;6149261;28;20422;-66
2022/07/13 13:52:10;;;;;;;;;;;;;;;31.79;28.87;97298.66;6149614;28;19927;-65
2022/07/13 13:55:16;;;;;;;;;;;;;;;31.72;29.03;97303.31;6149813;28;20009;-65
2022/07/13 13:58:18;;;;;;;;;;;;;;;31.64;28.90;97296.25;6150224;28;19926;-66
2022/07/13 14:01:19;;;;;;;;;;;;;;;31.63;28.27;97297.31;6150092;28;19942;-66
2022/07/13 14:04:22;;;;;;;;;;;;;;;31.61;28.91;97295.88;6149999;28;19926;-67
2022/07/13 14:07:25;;;;;;;;;;;;;;;31.58;28.42;97302.59;6149713;28;19927;-66
2022/07/13 14:10:26;;;;;;;;;;;;;;;31.51;29.10;97313.53;6149511;28;19933;-65
2022/07/13 14:13:28;;;;;;;;;;;;;;;31.32;28.78;97317.22;6149349;28;20448;-66
2022/07/13 14:16:33;;;;;;;;;;;;;;;31.16;28.99;97313.13;6149664;28;19930;-66
2022/07/13 14:19:43;;;;;;;;;;;;;;;31.09;29.09;97306.91;6149419;28;19926;-67
2022/07/13 14:22:48;;;;;;;;;;;;;;;31.00;29.15;97305.53;6149478;28;19926;-65
2022/07/13 14:25:51;;;;;;;;;;;;;;;30.92;29.44;97300.34;6148314;28;19927;-66
2022/07/13 14:28:57;;;;;;;;;;;;;;;30.81;29.55;97297.25;6148976;28;19926;-66
2022/07/13 14:31:58;;;;;;;;;;;;;;;30.74;29.92;97290.97;6149132;28;19933;-65
2022/07/13 14:35:02;;;;;;;;;;;;;;;30.63;30.16;97294.38;6148932;28;19926;-65
2022/07/13 14:38:06;;;;;;;;;;;;;;;30.50;30.67;97289.88;6148713;28;19926;-65
2022/07/13 14:41:10;;;;;;;;;;;;;;;30.36;30.68;97293.69;6149106;29;19922;-66
2022/07/13 14:44:14;;;;;;;;;;;;;;;30.25;30.80;97289.75;6148691;28;19926;-66
2022/07/13 14:47:19;;;;;;;;;;;;;;;30.15;30.89;97286.66;6148716;28;19926;-65
2022/07/13 14:50:23;;;;;;;;;;;;;;;30.07;30.76;97284.16;6149050;29;19934;-66
2022/07/13 14:53:24;;;;;;;;;;;;;;;29.99;30.91;97288.75;6148653;28;19922;-65
2022/07/13 14:56:30;;;;;;;;;;;;;;;29.92;30.93;97285.25;6147599;29;19926;-67
2022/07/13 14:59:36;;;;;;;;;;;;;;;29.85;30.79;97280.88;6148804;28;20316;-66
2022/07/13 15:02:39;;;;;;;;;;;;;;;29.77;30.96;97284.63;6149023;28;20021;-66
2022/07/13 15:05:43;;;;;;;;;;;;;;;29.69;31.11;97288.38;6148819;28;20024;-65
2022/07/13 15:08:44;;;;;;;;;;;;;;;29.64;31.08;97290.06;6148522;28;19934;-66
2022/07/13 15:11:48;;;;;;;;;;;;;;;29.62;31.08;97303.00;6148677;28;20404;-66
2022/07/13 15:14:52;;;;;;;;;;;;;;;29.56;31.15;97298.41;6148609;28;19984;-65
2022/07/13 15:17:53;;;;;;;;;;;;;;;29.49;31.14;97303.81;6148407;28;19997;-65
2022/07/13 15:20:54;;;;;;;;;;;;;;;29.44;31.09;97307.19;6148397;28;19926;-66
2022/07/13 15:23:58;;;;;;;;;;;;;;;29.44;32.11;97318.03;6148340;28;19930;-65
2022/07/13 15:26:59;;;;;;;;;;;;;;;29.22;32.90;97327.38;6152287;28;20061;-66
2022/07/13 15:30:00;;;;;;;;;;;;;;;29.03;34.17;97332.56;6153486;28;19926;-65
2022/07/13 15:33:04;;;;;;;;;;;;;;;28.92;37.31;97340.41;6153298;28;20326;-65
2022/07/13 15:36:07;;;;;;;;;;;;;;;28.50;39.98;97343.19;6153080;28;19926;-65
2022/07/13 15:39:13;;;;;;;;;;;;;;;27.93;41.10;97349.69;6153228;28;20013;-64
2022/07/13 15:42:13;;;;;;;;;;;;;;;27.18;43.08;97351.16;6152304;28;19937;-65
2022/07/13 15:45:17;;;;;;;;;;;;;;;25.69;47.83;97340.44;6152958;28;20307;-65
2022/07/13 15:48:18;;;;;;;;;;;;;;;24.60;50.36;97330.78;6153149;28;19933;-66
2022/07/13 15:51:22;;;;;;;;;;;;;;;23.98;53.20;97318.09;6153030;28;20366;-67
2022/07/13 15:54:26;;;;;;;;;;;;;;;23.64;54.04;97303.03;6152720;28;20020;-65
2022/07/13 15:57:27;;;;;;;;;;;;;;;23.56;55.99;97307.59;6152190;28;20308;-66
2022/07/13 16:00:28;;;;;;;;;;;;;;;23.27;55.62;97295.56;6152655;29;20080;-66
2022/07/13 16:03:29;;;;;;;;;;;;;;;23.59;56.29;97283.09;6152471;28;20020;-67
2022/07/13 16:06:33;;;;;;;;;;;;;;;23.53;55.65;97292.66;6152453;28;20308;-66
2022/07/13 16:09:36;;;;;;;;;;;;;;;23.67;55.29;97300.00;6152657;28;19931;-67
2022/07/13 16:12:37;;;;;;;;;;;;;;;23.83;54.81;97303.69;6152049;28;20426;-66
2022/07/13 16:15:40;;;;;;;;;;;;;;;24.04;54.23;97314.72;6151968;28;19974;-65
2022/07/13 16:18:45;;;;;;;;;;;;;;;24.15;53.79;97317.03;6152458;28;19926;-66
2022/07/13 16:21:56;;;;;;;;;;;;;;;24.18;54.17;97338.19;6152256;28;20058;-65
2022/07/13 16:25:01;;;;;;;;;;;;;;;24.22;55.33;97348.59;6150702;28;20301;-65
2022/07/13 16:28:07;;;;;;;;;;;;;;;24.25;55.94;97340.19;6152198;28;20006;-65
2022/07/13 16:31:08;;;;;;;;;;;;;;;24.15;56.29;97327.78;6151522;28;19933;-65
2022/07/13 16:34:11;;;;;;;;;;;;;;;24.27;55.30;97300.53;6152021;28;19930;-65
2022/07/13 16:37:12;;;;;;;;;;;;;;;24.52;54.39;97299.41;6152025;28;19933;-65
2022/07/13 16:40:14;;;;;;;;;;;;;;;24.52;53.62;97296.72;6151730;28;19934;-66
2022/07/13 16:43:15;;;;;;;;;;;;;;;24.09;56.52;97292.69;6151545;28;20316;-66